Denfield, Canada
Current Conditions -  °F | °C
As of 5:00 PM on Saturday 20 Dec 2014 (Local Time) from CYXU Reporting Station
Overcast Overcast  
Wind Chill: 28°   Ceiling: 1700
Heat Index: 28°   Visibility: 15mi
Dew Point: 23°   Wind: 3mph
Humidity: 80%   Direction: 300°WNW
Pressure: 30.25"   Gusts: NA
Location:  43.13°N, 81.43°W
Report Text: CYXU 202200Z 30003KT 240V330 15SM OVC017 M02/M05 A3025 RMK SC8 SLP258
Loading
Personal Weather Stations






























Interactive Weather Map New forecast layout! Learn more

10-Day Weather Forecast

Advertisements
Track Severe Weather on mobile